Time,TemperatureF,DewpointF,PressureIn,WindDirection,WindDirectionDegrees,WindSpeedMPH,WindSpeedGustMPH,Humidity,HourlyPrecipIn,Conditions,Clouds,dailyrainin,SoftwareType,DateUTC
2013-06-18 00:01:00,48.6,45.5,29.74,SE,146,0.1,1.6,89,0.00,,,0.00,WSDL version 420,2013-06-17 14:01:00,
2013-06-18 00:11:00,48.4,45.4,29.74,SE,145,0.4,1.6,90,0.00,,,0.00,WSDL version 420,2013-06-17 14:11:00,
2013-06-18 00:16:00,48.3,45.5,29.74,SSE,158,0.0,1.6,90,-99.99,,,-99.99,WSDL version 420,2013-06-17 14:16:00,
2013-06-18 00:21:00,47.9,45.1,29.74,SW,225,0.0,0.0,90,0.00,,,0.00,WSDL version 420,2013-06-17 14:21:00,
2013-06-18 00:26:00,47.4,44.6,29.74,SW,225,0.0,0.0,90,0.00,,,0.00,WSDL version 420,2013-06-17 14:26:00,
2013-06-18 00:31:00,47.1,44.6,29.74,South,191,0.0,0.0,91,0.00,,,0.00,WSDL version 420,2013-06-17 14:31:00,
2013-06-18 00:36:00,46.8,44.4,29.74,SW,225,0.0,0.0,91,-99.99,,,-99.99,WSDL version 420,2013-06-17 14:36:00,
2013-06-18 00:41:00,46.6,44.1,29.71,SSE,165,0.0,1.1,91,0.00,,,0.00,WSDL version 420,2013-06-17 14:41:00,
2013-06-18 00:46:00,46.5,44.3,29.71,SSW,197,0.0,1.1,92,0.00,,,0.00,WSDL version 420,2013-06-17 14:46:00,
2013-06-18 00:51:00,46.3,44.3,29.71,West,270,0.0,0.0,93,0.00,,,0.00,WSDL version 420,2013-06-17 14:51:00,
2013-06-18 00:56:00,46.0,44.2,29.71,NNE,33,0.0,0.0,93,0.00,,,0.00,WSDL version 420,2013-06-17 14:56:00,
2013-06-18 01:01:00,46.0,44.2,29.71,ENE,71,0.0,0.0,93,-99.99,,,-99.99,WSDL version 420,2013-06-17 15:01:00,
2013-06-18 01:06:00,46.0,44.3,29.71,SSE,160,0.9,1.3,94,0.00,,,0.00,WSDL version 420,2013-06-17 15:06:00,
2013-06-18 01:11:00,46.0,44.4,29.71,South,169,0.0,2.2,94,0.00,,,0.00,WSDL version 420,2013-06-17 15:11:00,
2013-06-18 01:16:00,46.0,44.7,29.71,SW,214,0.0,2.2,96,0.00,,,0.00,WSDL version 420,2013-06-17 15:16:00,
2013-06-18 01:21:00,45.9,44.7,29.71,SW,222,0.0,2.2,96,-99.99,,,-99.99,WSDL version 420,2013-06-17 15:21:00,
2013-06-18 01:26:00,45.8,44.6,29.71,SSW,203,0.0,1.3,96,-99.99,,,-99.99,WSDL version 420,2013-06-17 15:26:00,
2013-06-18 01:31:00,45.7,44.5,29.71,SE,138,0.1,1.6,96,0.00,,,0.00,WSDL version 420,2013-06-17 15:31:00,
2013-06-18 01:36:00,45.9,45.0,29.71,SSE,161,0.0,1.6,97,0.00,,,0.00,WSDL version 420,2013-06-17 15:36:00,
2013-06-18 01:41:00,45.9,45.0,29.71,SSE,155,1.1,1.6,97,0.00,,,0.00,WSDL version 420,2013-06-17 15:41:00,
2013-06-18 01:46:00,46.2,45.5,29.71,SSE,165,0.4,1.6,98,0.00,,,0.00,WSDL version 420,2013-06-17 15:46:00,
2013-06-18 01:51:00,46.2,45.6,29.71,SE,141,0.8,1.6,98,0.00,,,0.00,WSDL version 420,2013-06-17 15:51:00,
2013-06-18 01:56:00,46.3,45.7,29.71,SW,231,1.1,2.2,98,0.00,,,0.00,WSDL version 420,2013-06-17 15:56:00,
2013-06-18 02:01:00,46.4,45.8,29.71,SE,143,0.0,2.2,98,0.00,,,0.00,WSDL version 420,2013-06-17 16:01:00,
2013-06-18 02:06:00,46.4,45.8,29.71,SE,138,1.0,2.0,98,0.00,,,0.00,WSDL version 420,2013-06-17 16:06:00,
2013-06-18 02:11:00,46.4,45.8,29.71,South,170,0.3,2.0,98,0.00,,,0.00,WSDL version 420,2013-06-17 16:11:00,
2013-06-18 02:16:00,46.4,45.8,29.71,SE,132,1.0,2.2,98,0.00,,,0.00,WSDL version 420,2013-06-17 16:16:00,
2013-06-18 02:21:00,46.3,45.7,29.71,WSW,248,0.0,2.2,98,0.00,,,0.00,WSDL version 420,2013-06-17 16:21:00,
2013-06-18 02:26:00,45.9,45.0,29.71,South,183,0.0,2.0,97,0.00,,,0.00,WSDL version 420,2013-06-17 16:26:00,
2013-06-18 02:31:00,45.8,44.9,29.71,SSE,154,0.9,1.3,97,0.00,,,0.00,WSDL version 420,2013-06-17 16:31:00,
2013-06-18 02:36:00,45.5,44.6,29.71,SW,219,0.0,1.3,97,0.00,,,0.00,WSDL version 420,2013-06-17 16:36:00,
2013-06-18 02:41:00,45.3,44.4,29.71,SE,129,0.0,0.0,97,0.00,,,0.00,WSDL version 420,2013-06-17 16:41:00,
2013-06-18 02:46:00,45.3,44.4,29.71,West,270,0.0,1.1,97,0.00,,,0.00,WSDL version 420,2013-06-17 16:46:00,
2013-06-18 02:51:00,45.0,44.1,29.71,West,270,0.0,1.1,97,0.00,,,0.00,WSDL version 420,2013-06-17 16:51:00,
2013-06-18 02:56:00,44.5,43.8,29.71,WSW,256,0.0,0.0,98,0.00,,,0.00,WSDL version 420,2013-06-17 16:56:00,
2013-06-18 03:01:00,44.5,43.9,29.71,SW,228,0.0,1.1,98,0.00,,,0.00,WSDL version 420,2013-06-17 17:01:00,
2013-06-18 03:06:00,44.2,43.7,29.71,SW,225,0.0,1.1,98,0.00,,,0.00,WSDL version 420,2013-06-17 17:06:00,
2013-06-18 03:11:00,44.0,43.4,29.71,SW,225,0.0,0.0,98,0.00,,,0.00,WSDL version 420,2013-06-17 17:11:00,
2013-06-18 03:16:00,43.8,43.5,29.71,SSE,164,0.0,0.0,99,0.00,,,0.00,WSDL version 420,2013-06-17 17:16:00,
2013-06-18 03:21:00,43.8,43.5,29.71,SSE,158,0.0,0.0,99,0.00,,,0.00,WSDL version 420,2013-06-17 17:21:00,
2013-06-18 03:26:00,43.8,43.5,29.71,SSE,148,0.3,1.3,99,0.00,,,0.00,WSDL version 420,2013-06-17 17:26:00,
2013-06-18 03:31:00,43.7,43.4,29.71,South,180,0.0,1.3,99,-99.99,,,-99.99,WSDL version 420,2013-06-17 17:31:00,
2013-06-18 03:36:00,43.4,43.1,29.71,South,180,0.0,0.0,99,0.00,,,0.00,WSDL version 420,2013-06-17 17:36:00,
2013-06-18 03:41:00,43.4,43.1,29.71,SSE,161,0.0,0.0,99,0.00,,,0.00,WSDL version 420,2013-06-17 17:41:00,
2013-06-18 03:46:00,43.3,43.0,29.71,South,186,0.0,0.0,99,0.00,,,0.00,WSDL version 420,2013-06-17 17:46:00,
2013-06-18 03:51:00,43.3,43.0,29.71,SSE,154,0.0,0.0,99,0.00,,,0.00,WSDL version 420,2013-06-17 17:51:00,
2013-06-18 03:56:00,43.1,42.9,29.71,SSE,158,0.0,0.0,99,0.00,,,0.00,WSDL version 420,2013-06-17 17:56:00,
2013-06-18 04:01:00,42.9,42.6,29.71,SW,225,0.0,0.0,99,-99.99,,,-99.99,WSDL version 420,2013-06-17 18:01:00,
2013-06-18 04:06:00,42.8,42.7,29.71,SW,225,0.0,0.0,100,0.00,,,0.00,WSDL version 420,2013-06-17 18:06:00,
2013-06-18 04:11:00,42.7,42.7,29.71,SSE,158,0.0,0.0,100,0.00,,,0.00,WSDL version 420,2013-06-17 18:11:00,
2013-06-18 04:16:00,42.8,42.8,29.71,SSE,148,0.0,0.0,100,0.00,,,0.00,WSDL version 420,2013-06-17 18:16:00,
2013-06-18 04:21:00,42.8,42.8,29.71,South,180,0.0,0.9,100,0.00,,,0.00,WSDL version 420,2013-06-17 18:21:00,
2013-06-18 04:26:00,42.9,42.9,29.71,SSW,203,0.0,0.9,100,-99.99,,,-99.99,WSDL version 420,2013-06-17 18:26:00,
2013-06-18 04:31:00,42.8,42.8,29.71,West,270,0.0,0.0,100,0.00,,,0.00,WSDL version 420,2013-06-17 18:31:00,
2013-06-18 04:36:00,42.7,42.7,29.71,South,186,0.0,0.0,100,0.00,,,0.00,WSDL version 420,2013-06-17 18:36:00,
2013-06-18 04:41:00,42.8,42.8,29.71,SSE,158,0.0,0.0,100,0.00,,,0.00,WSDL version 420,2013-06-17 18:41:00,
2013-06-18 04:46:00,42.9,42.9,29.71,SW,219,0.0,0.0,100,0.00,,,0.00,WSDL version 420,2013-06-17 18:46:00,
2013-06-18 04:51:00,42.7,42.7,29.71,West,270,0.0,0.0,100,0.00,,,0.00,WSDL version 420,2013-06-17 18:51:00,
2013-06-18 04:56:00,42.4,42.4,29.74,South,178,0.0,0.0,100,0.00,,,0.00,WSDL version 420,2013-06-17 18:56:00,
2013-06-18 05:01:00,42.6,42.6,29.74,SSE,154,0.8,2.0,100,0.00,,,0.00,WSDL version 420,2013-06-17 19:01:00,
2013-06-18 05:06:00,42.9,42.9,29.74,South,180,0.0,2.0,100,0.00,,,0.00,WSDL version 420,2013-06-17 19:06:00,
2013-06-18 05:11:00,43.2,43.2,29.74,SE,146,0.7,2.0,100,0.00,,,0.00,WSDL version 420,2013-06-17 19:11:00,
2013-06-18 05:16:00,43.5,43.5,29.74,SW,225,0.0,2.0,100,0.00,,,0.00,WSDL version 420,2013-06-17 19:16:00,
2013-06-18 05:21:00,43.7,43.7,29.74,South,174,0.3,1.3,100,0.00,,,0.00,WSDL version 420,2013-06-17 19:21:00,
2013-06-18 05:26:00,44.0,44.0,29.74,South,174,1.0,2.5,100,0.00,,,0.00,WSDL version 420,2013-06-17 19:26:00,
2013-06-18 05:31:00,44.2,44.2,29.74,South,169,0.2,2.5,100,-99.99,,,-99.99,WSDL version 420,2013-06-17 19:31:00,
2013-06-18 05:36:00,44.5,44.5,29.74,SE,146,1.3,2.5,100,0.00,,,0.00,WSDL version 420,2013-06-17 19:36:00,
2013-06-18 05:41:00,44.8,44.8,29.74,SSE,161,1.1,2.0,100,0.00,,,0.00,WSDL version 420,2013-06-17 19:41:00,
2013-06-18 05:46:00,44.8,44.8,29.74,SSE,166,1.1,2.2,100,0.00,,,0.00,WSDL version 420,2013-06-17 19:46:00,
2013-06-18 05:51:00,44.8,44.8,29.74,SSW,199,0.8,2.7,100,0.00,,,0.00,WSDL version 420,2013-06-17 19:51:00,
2013-06-18 05:56:00,45.0,45.0,29.74,SW,214,0.6,2.7,100,-99.99,,,-99.99,WSDL version 420,2013-06-17 19:56:00,
2013-06-18 06:01:00,45.0,45.0,29.74,SW,234,1.0,2.9,100,0.00,,,0.00,WSDL version 420,2013-06-17 20:01:00,
2013-06-18 06:06:00,45.2,45.2,29.74,SE,138,1.7,2.9,100,0.00,,,0.00,WSDL version 420,2013-06-17 20:06:00,
2013-06-18 06:11:00,45.3,45.3,29.74,South,177,1.4,2.7,100,0.00,,,0.00,WSDL version 420,2013-06-17 20:11:00,
2013-06-18 06:16:00,45.3,45.3,29.74,SSE,151,1.6,3.4,100,0.00,,,0.00,WSDL version 420,2013-06-17 20:16:00,
2013-06-18 06:21:00,45.2,45.2,29.74,South,173,1.4,3.4,100,0.00,,,0.00,WSDL version 420,2013-06-17 20:21:00,
2013-06-18 06:26:00,45.2,45.2,29.74,North,356,1.7,3.6,100,0.00,,,0.00,WSDL version 420,2013-06-17 20:26:00,
2013-06-18 06:31:00,45.3,45.3,29.74,South,180,1.1,3.6,100,0.00,,,0.00,WSDL version 420,2013-06-17 20:31:00,
2013-06-18 06:36:00,45.1,44.8,29.74,SSE,160,1.0,2.9,99,0.00,,,0.00,WSDL version 420,2013-06-17 20:36:00,
2013-06-18 06:46:00,44.8,44.2,29.71,South,183,1.9,3.1,98,0.00,,,0.00,WSDL version 420,2013-06-17 20:46:00,
2013-06-18 06:56:00,44.6,44.0,29.74,South,180,1.7,2.2,98,0.00,,,0.00,WSDL version 420,2013-06-17 20:56:00,
2013-06-18 07:01:00,44.6,44.0,29.74,SSW,199,0.5,2.2,98,0.00,,,0.00,WSDL version 420,2013-06-17 21:01:00,
2013-06-18 07:06:00,44.6,44.0,29.74,SSW,203,1.1,2.2,98,0.00,,,0.00,WSDL version 420,2013-06-17 21:06:00,
2013-06-18 07:11:00,44.6,44.2,29.74,SE,131,1.3,3.1,99,0.00,,,0.00,WSDL version 420,2013-06-17 21:11:00,
2013-06-18 07:16:00,45.1,44.8,29.74,South,180,1.6,3.6,99,0.00,,,0.00,WSDL version 420,2013-06-17 21:16:00,
2013-06-18 07:26:00,45.5,45.2,29.74,WSW,239,1.1,3.6,99,0.00,,,0.00,WSDL version 420,2013-06-17 21:26:00,
2013-06-18 07:31:00,45.8,45.3,29.74,SSW,209,0.6,2.9,98,0.00,,,0.00,WSDL version 420,2013-06-17 21:31:00,
2013-06-18 07:41:00,46.2,45.6,29.74,SSE,154,0.5,3.4,98,0.00,,,0.00,WSDL version 420,2013-06-17 21:41:00,
2013-06-18 07:46:00,46.9,46.0,29.74,SE,132,0.0,3.4,97,-99.99,,,-99.99,WSDL version 420,2013-06-17 21:46:00,
2013-06-18 07:51:00,47.0,46.1,29.74,WSW,257,1.7,2.9,97,0.00,,,0.00,WSDL version 420,2013-06-17 21:51:00,
2013-06-18 07:56:00,47.5,46.6,29.74,WSW,251,1.2,3.1,97,0.00,,,0.00,WSDL version 420,2013-06-17 21:56:00,
2013-06-18 08:01:00,48.0,46.7,29.74,WSW,248,1.5,4.0,94,0.00,,,0.00,WSDL version 420,2013-06-17 22:01:00,
2013-06-18 08:06:00,48.8,46.9,29.74,West,270,1.5,4.0,93,0.00,,,0.00,WSDL version 420,2013-06-17 22:06:00,
2013-06-18 08:11:00,50.6,48.0,29.77,WSW,250,2.6,3.6,89,0.00,,,0.00,WSDL version 420,2013-06-17 22:11:00,
2013-06-18 08:16:00,52.4,48.7,29.77,West,281,1.5,3.6,87,-99.99,,,-99.99,WSDL version 420,2013-06-17 22:16:00,
2013-06-18 08:21:00,53.4,48.7,29.77,West,264,2.0,3.4,82,0.00,,,0.00,WSDL version 420,2013-06-17 22:21:00,
2013-06-18 08:26:00,53.9,48.4,29.77,WNW,285,1.8,3.6,81,0.00,,,0.00,WSDL version 420,2013-06-17 22:26:00,
2013-06-18 08:31:00,54.5,48.1,29.77,WNW,293,2.4,3.8,78,0.00,,,0.00,WSDL version 420,2013-06-17 22:31:00,
2013-06-18 08:36:00,54.7,46.8,29.77,West,262,3.0,4.3,74,0.00,,,0.00,WSDL version 420,2013-06-17 22:36:00,
2013-06-18 08:41:00,54.7,46.1,29.77,WSW,256,2.5,5.4,73,0.00,,,0.00,WSDL version 420,2013-06-17 22:41:00,
2013-06-18 08:46:00,55.2,46.4,29.77,WNW,289,2.5,5.4,72,0.00,,,0.00,WSDL version 420,2013-06-17 22:46:00,
2013-06-18 08:51:00,55.7,46.3,29.77,West,267,2.5,5.4,71,0.00,,,0.00,WSDL version 420,2013-06-17 22:51:00,
2013-06-18 08:56:00,56.2,46.6,29.80,WNW,287,2.1,4.3,70,0.00,,,0.00,WSDL version 420,2013-06-17 22:56:00,
2013-06-18 09:01:00,56.5,46.4,29.80,West,278,3.5,5.4,67,0.00,,,0.00,WSDL version 420,2013-06-17 23:01:00,
2013-06-18 09:06:00,56.9,46.2,29.80,WNW,295,2.8,5.4,66,-99.99,,,-99.99,WSDL version 420,2013-06-17 23:06:00,
2013-06-18 09:11:00,57.4,45.5,29.80,WNW,288,3.8,6.0,63,-99.99,,,-99.99,WSDL version 420,2013-06-17 23:11:00,
2013-06-18 09:16:00,57.7,44.2,29.80,West,275,4.0,7.8,60,-99.99,,,-99.99,WSDL version 420,2013-06-17 23:16:00,
2013-06-18 09:21:00,58.2,44.3,29.80,West,270,3.0,7.8,60,-99.99,,,-99.99,WSDL version 420,2013-06-17 23:21:00,
2013-06-18 09:26:00,58.9,44.5,29.80,West,280,3.3,6.0,58,0.00,,,0.00,WSDL version 420,2013-06-17 23:26:00,
2013-06-18 09:31:00,59.2,43.7,29.80,West,274,3.4,6.0,56,0.00,,,0.00,WSDL version 420,2013-06-17 23:31:00,
2013-06-18 09:36:00,59.5,43.8,29.80,West,273,3.6,5.4,56,0.00,,,0.00,WSDL version 420,2013-06-17 23:36:00,
2013-06-18 09:41:00,59.8,43.7,29.77,West,259,4.4,6.3,54,0.00,,,0.00,WSDL version 420,2013-06-17 23:41:00,
2013-06-18 09:46:00,60.3,43.9,29.77,WNW,300,1.8,6.3,55,0.00,,,0.00,WSDL version 420,2013-06-17 23:46:00,
2013-06-18 09:51:00,61.2,44.2,29.77,WNW,293,3.9,7.8,52,0.00,,,0.00,WSDL version 420,2013-06-17 23:51:00,
2013-06-18 09:56:00,61.1,42.7,29.77,West,276,4.0,7.8,50,0.00,,,0.00,WSDL version 420,2013-06-17 23:56:00,
2013-06-18 10:06:00,61.6,43.1,29.77,WNW,293,4.0,7.6,51,0.00,,,0.00,WSDL version 420,2013-06-18 00:06:00,
2013-06-18 10:11:00,62.5,43.8,29.77,NW,305,2.4,6.0,50,-99.99,,,-99.99,WSDL version 420,2013-06-18 00:11:00,
2013-06-18 10:16:00,62.9,42.9,29.77,WNW,293,4.4,7.2,47,0.00,,,0.00,WSDL version 420,2013-06-18 00:16:00,
2013-06-18 10:21:00,62.8,42.3,29.77,West,278,2.6,7.2,47,0.00,,,0.00,WSDL version 420,2013-06-18 00:21:00,
2013-06-18 10:26:00,63.2,42.7,29.77,NNW,338,2.5,7.2,48,0.00,,,0.00,WSDL version 420,2013-06-18 00:26:00,
2013-06-18 10:31:00,64.0,43.6,29.77,West,273,4.3,8.1,46,0.00,,,0.00,WSDL version 420,2013-06-18 00:31:00,
2013-06-18 10:36:00,64.0,42.8,29.77,NW,309,3.2,8.1,46,0.00,,,0.00,WSDL version 420,2013-06-18 00:36:00,
2013-06-18 10:41:00,64.3,42.6,29.80,WNW,289,5.4,8.7,45,0.00,,,0.00,WSDL version 420,2013-06-18 00:41:00,
2013-06-18 10:46:00,64.5,43.0,29.80,West,273,3.4,8.7,45,-99.99,,,-99.99,WSDL version 420,2013-06-18 00:46:00,
2013-06-18 10:51:00,64.7,42.2,29.80,WNW,289,5.3,10.1,43,0.00,,,0.00,WSDL version 420,2013-06-18 00:51:00,
2013-06-18 10:56:00,64.3,41.8,29.80,NNW,334,3.5,10.1,44,0.00,,,0.00,WSDL version 420,2013-06-18 00:56:00,
2013-06-18 11:01:00,64.8,42.4,29.80,WNW,293,4.1,8.5,44,0.00,,,0.00,WSDL version 420,2013-06-18 01:01:00,
2013-06-18 11:06:00,64.9,42.3,29.80,NW,307,3.6,7.8,44,0.00,,,0.00,WSDL version 420,2013-06-18 01:06:00,
2013-06-18 11:11:00,65.4,42.8,29.80,WNW,299,3.2,7.8,43,0.00,,,0.00,WSDL version 420,2013-06-18 01:11:00,
2013-06-18 11:16:00,65.1,41.4,29.80,NW,312,4.9,9.6,42,0.00,,,0.00,WSDL version 420,2013-06-18 01:16:00,
2013-06-18 11:21:00,65.2,41.9,29.80,WSW,254,5.1,11.2,43,0.00,,,0.00,WSDL version 420,2013-06-18 01:21:00,
2013-06-18 11:26:00,65.5,42.3,29.80,West,264,3.7,11.2,42,-99.99,,,-99.99,WSDL version 420,2013-06-18 01:26:00,
2013-06-18 11:36:00,65.5,41.9,29.80,WNW,301,4.9,8.7,42,0.00,,,0.00,WSDL version 420,2013-06-18 01:36:00,
2013-06-18 11:41:00,65.6,41.3,29.80,WNW,293,5.8,9.6,40,0.00,,,0.00,WSDL version 420,2013-06-18 01:41:00,
2013-06-18 11:46:00,65.3,40.8,29.80,WNW,298,5.4,9.6,41,0.00,,,0.00,WSDL version 420,2013-06-18 01:46:00,
2013-06-18 11:51:00,65.2,40.9,29.80,WNW,293,4.7,8.7,41,0.00,,,0.00,WSDL version 420,2013-06-18 01:51:00,
2013-06-18 11:56:00,65.5,41.2,29.77,WNW,289,5.1,8.7,41,0.00,,,0.00,WSDL version 420,2013-06-18 01:56:00,
2013-06-18 12:01:00,65.5,41.2,29.77,WNW,299,5.1,8.5,40,0.00,,,0.00,WSDL version 420,2013-06-18 02:01:00,
2013-06-18 12:06:00,65.4,40.6,29.77,West,276,6.1,9.6,41,-99.99,,,-99.99,WSDL version 420,2013-06-18 02:06:00,
2013-06-18 12:11:00,65.8,41.5,29.80,NW,325,4.4,9.6,41,0.00,,,0.00,WSDL version 420,2013-06-18 02:11:00,
2013-06-18 12:16:00,66.6,41.6,29.80,WSW,253,3.7,7.6,40,0.00,,,0.00,WSDL version 420,2013-06-18 02:16:00,
2013-06-18 12:21:00,66.9,41.7,29.80,WNW,296,4.7,7.8,40,-99.99,,,-99.99,WSDL version 420,2013-06-18 02:21:00,
2013-06-18 12:26:00,66.9,41.0,29.77,WNW,285,5.4,11.0,38,-99.99,,,-99.99,WSDL version 420,2013-06-18 02:26:00,
2013-06-18 12:31:00,67.1,41.1,29.77,WNW,302,4.9,11.0,38,0.00,,,0.00,WSDL version 420,2013-06-18 02:31:00,
2013-06-18 12:36:00,67.2,41.2,29.77,NW,304,3.1,11.9,39,-99.99,,,-99.99,WSDL version 420,2013-06-18 02:36:00,
2013-06-18 12:41:00,67.8,41.6,29.77,NNW,334,3.1,11.9,38,-99.99,,,-99.99,WSDL version 420,2013-06-18 02:41:00,
2013-06-18 12:46:00,68.1,41.0,29.77,NW,305,4.5,8.1,37,0.00,,,0.00,WSDL version 420,2013-06-18 02:46:00,
2013-06-18 12:51:00,68.1,40.6,29.77,NW,308,4.5,6.9,37,-99.99,,,-99.99,WSDL version 420,2013-06-18 02:51:00,
2013-06-18 12:56:00,68.0,40.6,29.77,NW,309,3.5,6.9,37,-99.99,,,-99.99,WSDL version 420,2013-06-18 02:56:00,
2013-06-18 13:01:00,68.5,40.7,29.77,WNW,290,4.4,6.3,36,-99.99,,,-99.99,WSDL version 420,2013-06-18 03:01:00,
2013-06-18 13:06:00,68.4,40.4,29.77,WNW,296,3.9,8.7,36,-99.99,,,-99.99,WSDL version 420,2013-06-18 03:06:00,
2013-06-18 13:11:00,68.2,40.3,29.74,NW,308,3.9,9.2,36,-99.99,,,-99.99,WSDL version 420,2013-06-18 03:11:00,
2013-06-18 13:16:00,68.1,40.1,29.74,West,276,5.5,9.2,36,0.00,,,0.00,WSDL version 420,2013-06-18 03:16:00,
2013-06-18 13:21:00,67.8,39.9,29.74,West,276,5.0,10.3,36,-99.99,,,-99.99,WSDL version 420,2013-06-18 03:21:00,
2013-06-18 13:26:00,67.7,39.8,29.74,WNW,283,4.8,11.9,36,0.00,,,0.00,WSDL version 420,2013-06-18 03:26:00,
2013-06-18 13:31:00,67.0,38.5,29.74,WNW,302,7.8,11.9,35,0.00,,,0.00,WSDL version 420,2013-06-18 03:31:00,
2013-06-18 13:36:00,67.1,39.3,29.74,WNW,293,5.6,8.7,36,-99.99,,,-99.99,WSDL version 420,2013-06-18 03:36:00,
2013-06-18 13:41:00,67.3,39.6,29.74,WNW,285,4.1,8.7,37,0.00,,,0.00,WSDL version 420,2013-06-18 03:41:00,
2013-06-18 13:46:00,68.0,40.4,29.74,NNW,332,4.2,8.7,36,0.00,,,0.00,WSDL version 420,2013-06-18 03:46:00,
2013-06-18 13:51:00,68.5,40.8,29.74,WNW,297,1.6,5.8,37,-99.99,,,-99.99,WSDL version 420,2013-06-18 03:51:00,
2013-06-18 13:56:00,69.0,40.8,29.74,WNW,283,4.7,7.8,35,-99.99,,,-99.99,WSDL version 420,2013-06-18 03:56:00,
2013-06-18 14:01:00,68.5,39.8,29.74,West,265,4.3,10.5,35,0.00,,,0.00,WSDL version 420,2013-06-18 04:01:00,
2013-06-18 14:06:00,68.4,40.0,29.74,WNW,293,5.1,10.5,35,0.00,,,0.00,WSDL version 420,2013-06-18 04:06:00,
2013-06-18 14:11:00,68.1,39.6,29.74,WNW,302,4.5,7.8,36,-99.99,,,-99.99,WSDL version 420,2013-06-18 04:11:00,
2013-06-18 14:16:00,68.4,40.0,29.74,NW,312,3.5,6.9,36,-99.99,,,-99.99,WSDL version 420,2013-06-18 04:16:00,
2013-06-18 14:21:00,68.9,40.7,29.74,WNW,284,4.0,6.3,35,-99.99,,,-99.99,WSDL version 420,2013-06-18 04:21:00,
2013-06-18 14:26:00,68.7,39.8,29.74,WNW,285,3.8,7.4,35,0.00,,,0.00,WSDL version 420,2013-06-18 04:26:00,
2013-06-18 14:31:00,68.5,39.3,29.74,WNW,286,4.3,7.4,34,-99.99,,,-99.99,WSDL version 420,2013-06-18 04:31:00,
2013-06-18 14:36:00,68.5,39.8,29.74,NW,315,3.1,6.5,35,-99.99,,,-99.99,WSDL version 420,2013-06-18 04:36:00,
2013-06-18 14:41:00,68.2,39.5,29.74,WNW,298,3.9,7.2,35,-99.99,,,-99.99,WSDL version 420,2013-06-18 04:41:00,
2013-06-18 14:46:00,67.7,39.1,29.74,NW,305,3.9,7.2,35,-99.99,,,-99.99,WSDL version 420,2013-06-18 04:46:00,
2013-06-18 14:51:00,66.9,38.4,29.74,WNW,286,3.3,7.4,35,-99.99,,,-99.99,WSDL version 420,2013-06-18 04:51:00,
2013-06-18 14:56:00,65.8,37.6,29.74,WSW,248,3.1,7.4,36,-99.99,,,-99.99,WSDL version 420,2013-06-18 04:56:00,
2013-06-18 15:01:00,65.2,37.6,29.74,West,266,2.6,6.5,36,-99.99,,,-99.99,WSDL version 420,2013-06-18 05:01:00,
2013-06-18 15:06:00,64.8,37.6,29.74,West,273,3.0,6.3,37,-99.99,,,-99.99,WSDL version 420,2013-06-18 05:06:00,
2013-06-18 15:11:00,64.9,38.0,29.77,WNW,301,2.8,4.9,37,-99.99,,,-99.99,WSDL version 420,2013-06-18 05:11:00,
2013-06-18 15:16:00,65.1,38.2,29.77,NW,323,3.3,6.3,37,-99.99,,,-99.99,WSDL version 420,2013-06-18 05:16:00,
2013-06-18 15:21:00,65.6,39.2,29.77,NW,304,3.3,6.5,37,-99.99,,,-99.99,WSDL version 420,2013-06-18 05:21:00,
2013-06-18 15:26:00,66.2,39.1,29.77,West,270,3.0,7.6,36,0.00,,,0.00,WSDL version 420,2013-06-18 05:26:00,
2013-06-18 15:31:00,66.5,38.5,29.77,West,273,2.3,7.6,36,-99.99,,,-99.99,WSDL version 420,2013-06-18 05:31:00,
2013-06-18 15:36:00,67.0,39.0,29.77,WNW,293,3.5,7.6,35,0.00,,,0.00,WSDL version 420,2013-06-18 05:36:00,
2013-06-18 15:41:00,67.1,38.6,29.77,WNW,290,2.9,6.0,35,-99.99,,,-99.99,WSDL version 420,2013-06-18 05:41:00,
2013-06-18 15:46:00,67.1,38.6,29.77,West,275,2.6,6.0,35,-99.99,,,-99.99,WSDL version 420,2013-06-18 05:46:00,
2013-06-18 15:51:00,67.2,38.7,29.77,WSW,255,3.2,6.0,35,-99.99,,,-99.99,WSDL version 420,2013-06-18 05:51:00,
2013-06-18 15:56:00,67.2,38.7,29.77,NNW,342,1.7,4.9,35,-99.99,,,-99.99,WSDL version 420,2013-06-18 05:56:00,
2013-06-18 16:01:00,67.2,39.0,29.77,West,280,1.4,4.0,36,0.00,,,0.00,WSDL version 420,2013-06-18 06:01:00,
2013-06-18 16:06:00,67.5,39.6,29.77,WNW,296,0.7,4.0,36,0.00,,,0.00,WSDL version 420,2013-06-18 06:06:00,
2013-06-18 16:11:00,67.4,40.0,29.77,NW,321,1.2,2.9,37,0.00,,,0.00,WSDL version 420,2013-06-18 06:11:00,
2013-06-18 16:16:00,67.1,40.0,29.77,NNE,23,0.3,2.9,37,0.00,,,0.00,WSDL version 420,2013-06-18 06:16:00,
2013-06-18 16:21:00,66.7,40.1,29.77,SSE,154,0.0,1.6,38,0.00,,,0.00,WSDL version 420,2013-06-18 06:21:00,
2013-06-18 16:26:00,66.0,40.7,29.80,SE,146,0.0,0.9,40,0.00,,,0.00,WSDL version 420,2013-06-18 06:26:00,
2013-06-18 16:31:00,65.1,40.9,29.80,SSE,158,0.4,1.6,41,0.00,,,0.00,WSDL version 420,2013-06-18 06:31:00,
2013-06-18 16:36:00,63.9,40.4,29.80,South,172,0.0,1.6,42,0.00,,,0.00,WSDL version 420,2013-06-18 06:36:00,
2013-06-18 16:41:00,62.2,39.8,29.80,ESE,122,0.0,1.3,44,-99.99,,,-99.99,WSDL version 420,2013-06-18 06:41:00,
2013-06-18 16:46:00,60.5,39.6,29.80,SSE,148,0.0,1.3,46,0.00,,,0.00,WSDL version 420,2013-06-18 06:46:00,
2013-06-18 16:51:00,59.3,39.0,29.80,ESE,113,0.0,0.0,47,0.00,,,0.00,WSDL version 420,2013-06-18 06:51:00,
2013-06-18 16:56:00,58.3,39.3,29.80,SE,135,0.0,0.0,50,0.00,,,0.00,WSDL version 420,2013-06-18 06:56:00,
2013-06-18 17:01:00,57.4,39.2,29.80,SE,135,0.0,0.0,51,0.00,,,0.00,WSDL version 420,2013-06-18 07:01:00,
2013-06-18 17:06:00,56.9,39.5,29.80,SE,135,0.0,0.0,52,0.00,,,0.00,WSDL version 420,2013-06-18 07:06:00,
2013-06-18 17:11:00,56.6,39.9,29.77,SSE,152,0.0,0.0,54,0.00,,,0.00,WSDL version 420,2013-06-18 07:11:00,
2013-06-18 17:16:00,56.3,40.1,29.77,SSE,158,0.0,0.0,54,0.00,,,0.00,WSDL version 420,2013-06-18 07:16:00,
2013-06-18 17:21:00,56.2,40.4,29.77,SE,139,0.0,0.0,55,-99.99,,,-99.99,WSDL version 420,2013-06-18 07:21:00,
2013-06-18 17:26:00,55.9,40.6,29.80,SSW,203,0.8,1.6,56,0.00,,,0.00,WSDL version 420,2013-06-18 07:26:00,
2013-06-18 17:31:00,55.9,41.2,29.80,South,191,0.0,1.6,58,-99.99,,,-99.99,WSDL version 420,2013-06-18 07:31:00,
2013-06-18 17:36:00,55.9,41.5,29.80,SE,127,0.0,1.1,59,0.00,,,0.00,WSDL version 420,2013-06-18 07:36:00,
2013-06-18 17:41:00,55.8,41.7,29.80,South,169,0.0,1.1,59,0.00,,,0.00,WSDL version 420,2013-06-18 07:41:00,
2013-06-18 17:46:00,55.6,41.8,29.80,SE,135,0.0,0.0,60,0.00,,,0.00,WSDL version 420,2013-06-18 07:46:00,
2013-06-18 17:51:00,55.4,42.0,29.80,SE,135,0.0,0.0,61,-99.99,,,-99.99,WSDL version 420,2013-06-18 07:51:00,
2013-06-18 17:56:00,55.2,42.4,29.80,SE,135,0.0,0.0,63,-99.99,,,-99.99,WSDL version 420,2013-06-18 07:56:00,
2013-06-18 18:01:00,55.0,42.7,29.80,SE,138,0.0,0.0,63,0.00,,,0.00,WSDL version 420,2013-06-18 08:01:00,
2013-06-18 18:06:00,54.7,42.7,29.80,SSE,158,0.0,0.0,64,0.00,,,0.00,WSDL version 420,2013-06-18 08:06:00,
2013-06-18 18:11:00,54.3,42.8,29.80,SSE,158,0.0,0.0,65,-99.99,,,-99.99,WSDL version 420,2013-06-18 08:11:00,
2013-06-18 18:16:00,54.0,42.4,29.80,ESE,115,0.0,0.0,64,-99.99,,,-99.99,WSDL version 420,2013-06-18 08:16:00,
2013-06-18 18:21:00,53.7,42.1,29.80,SSE,150,0.0,1.1,65,-99.99,,,-99.99,WSDL version 420,2013-06-18 08:21:00,
2013-06-18 18:26:00,53.6,42.3,29.83,ESE,121,1.4,2.5,66,0.00,,,0.00,WSDL version 420,2013-06-18 08:26:00,
2013-06-18 18:31:00,53.7,43.1,29.83,SE,131,2.0,4.3,68,0.00,,,0.00,WSDL version 420,2013-06-18 08:31:00,
2013-06-18 18:36:00,54.5,44.9,29.83,WNW,303,2.8,6.0,69,0.00,,,0.00,WSDL version 420,2013-06-18 08:36:00,
2013-06-18 18:41:00,54.9,45.0,29.83,NNW,341,2.0,6.0,69,-99.99,,,-99.99,WSDL version 420,2013-06-18 08:41:00,
2013-06-18 18:46:00,55.0,45.4,29.83,NW,308,2.2,3.1,70,0.00,,,0.00,WSDL version 420,2013-06-18 08:46:00,
2013-06-18 18:51:00,55.3,46.0,29.83,WNW,284,2.6,4.0,71,0.00,,,0.00,WSDL version 420,2013-06-18 08:51:00,
2013-06-18 18:56:00,55.4,45.8,29.83,NW,312,2.0,4.0,70,-99.99,,,-99.99,WSDL version 420,2013-06-18 08:56:00,
2013-06-18 19:01:00,55.4,45.8,29.83,NW,318,2.0,3.1,70,0.00,,,0.00,WSDL version 420,2013-06-18 09:01:00,
2013-06-18 19:06:00,55.5,46.0,29.83,West,273,2.1,4.3,71,-99.99,,,-99.99,WSDL version 420,2013-06-18 09:06:00,
2013-06-18 19:11:00,55.6,46.3,29.83,North,11,0.9,4.3,71,-99.99,,,-99.99,WSDL version 420,2013-06-18 09:11:00,
2013-06-18 19:16:00,55.6,46.6,29.83,WSW,248,2.2,5.4,73,0.00,,,0.00,WSDL version 420,2013-06-18 09:16:00,
2013-06-18 19:21:00,55.8,48.1,29.83,NW,326,3.4,5.4,76,-99.99,,,-99.99,WSDL version 420,2013-06-18 09:21:00,
2013-06-18 19:26:00,55.9,48.8,29.83,West,276,3.7,6.5,78,-99.99,,,-99.99,WSDL version 420,2013-06-18 09:26:00,
2013-06-18 19:31:00,55.9,48.9,29.83,NW,318,1.9,6.5,77,-99.99,,,-99.99,WSDL version 420,2013-06-18 09:31:00,
2013-06-18 19:36:00,55.7,48.4,29.83,West,260,4.6,6.0,76,0.00,,,0.00,WSDL version 420,2013-06-18 09:36:00,
2013-06-18 19:41:00,55.3,47.3,29.85,SSW,203,3.3,6.0,74,-99.99,,,-99.99,WSDL version 420,2013-06-18 09:41:00,
2013-06-18 19:46:00,55.0,46.9,29.85,WNW,296,3.4,5.8,74,-99.99,,,-99.99,WSDL version 420,2013-06-18 09:46:00,
2013-06-18 19:51:00,54.6,46.5,29.85,WNW,289,3.6,6.0,74,-99.99,,,-99.99,WSDL version 420,2013-06-18 09:51:00,
2013-06-18 19:56:00,54.4,46.3,29.83,NW,304,3.5,10.3,74,0.00,,,0.00,WSDL version 420,2013-06-18 09:56:00,
2013-06-18 20:01:00,54.2,46.2,29.83,NW,321,2.9,10.3,75,0.00,,,0.00,WSDL version 420,2013-06-18 10:01:00,
2013-06-18 20:06:00,54.2,46.7,29.83,WNW,302,3.9,6.0,76,0.00,,,0.00,WSDL version 420,2013-06-18 10:06:00,
2013-06-18 20:11:00,54.4,47.0,29.85,NNW,332,4.1,7.2,76,0.00,,,0.00,WSDL version 420,2013-06-18 10:11:00,
2013-06-18 20:16:00,54.5,47.6,29.85,NNW,338,3.0,7.2,78,0.00,,,0.00,WSDL version 420,2013-06-18 10:16:00,
2013-06-18 20:21:00,54.5,47.8,29.85,NW,307,2.5,5.8,78,-99.99,,,-99.99,WSDL version 420,2013-06-18 10:21:00,
2013-06-18 20:26:00,54.5,47.8,29.85,NW,321,3.1,5.4,78,-99.99,,,-99.99,WSDL version 420,2013-06-18 10:26:00,
2013-06-18 20:31:00,54.4,47.4,29.85,West,278,2.6,5.4,77,-99.99,,,-99.99,WSDL version 420,2013-06-18 10:31:00,
2013-06-18 20:36:00,54.3,47.3,29.85,WNW,301,3.9,5.8,77,-99.99,,,-99.99,WSDL version 420,2013-06-18 10:36:00,
2013-06-18 20:41:00,54.1,46.9,29.85,NW,320,2.9,5.8,76,0.00,,,0.00,WSDL version 420,2013-06-18 10:41:00,
2013-06-18 20:46:00,54.1,46.5,29.85,NNW,328,2.2,4.0,75,-99.99,,,-99.99,WSDL version 420,2013-06-18 10:46:00,
2013-06-18 20:51:00,53.8,46.4,29.85,NW,308,2.2,4.5,76,-99.99,,,-99.99,WSDL version 420,2013-06-18 10:51:00,
2013-06-18 20:56:00,53.4,46.1,29.85,West,267,1.2,4.5,76,-99.99,,,-99.99,WSDL version 420,2013-06-18 10:56:00,
2013-06-18 21:01:00,53.0,45.6,29.85,SSE,164,0.0,2.0,76,-99.99,,,-99.99,WSDL version 420,2013-06-18 11:01:00,
2013-06-18 21:06:00,52.4,45.1,29.85,SSW,203,0.6,2.2,76,0.00,,,0.00,WSDL version 420,2013-06-18 11:06:00,
2013-06-18 21:11:00,51.8,44.7,29.85,SE,146,0.2,2.2,77,-99.99,,,-99.99,WSDL version 420,2013-06-18 11:11:00,
2013-06-18 21:16:00,51.3,44.5,29.85,SSW,193,1.0,1.6,78,0.00,,,0.00,WSDL version 420,2013-06-18 11:16:00,
2013-06-18 21:21:00,50.8,44.6,29.85,South,185,0.0,1.6,80,-99.99,,,-99.99,WSDL version 420,2013-06-18 11:21:00,
2013-06-18 21:26:00,50.5,44.5,29.85,SSE,165,0.0,1.3,80,-99.99,,,-99.99,WSDL version 420,2013-06-18 11:26:00,
2013-06-18 21:31:00,50.2,44.8,29.85,East,94,0.0,1.3,82,-99.99,,,-99.99,WSDL version 420,2013-06-18 11:31:00,
2013-06-18 21:36:00,50.0,45.2,29.85,WNW,295,0.2,2.7,83,-99.99,,,-99.99,WSDL version 420,2013-06-18 11:36:00,
2013-06-18 21:41:00,49.8,45.8,29.85,SW,222,0.7,2.7,87,-99.99,,,-99.99,WSDL version 420,2013-06-18 11:41:00,
2013-06-18 21:46:00,49.8,46.6,29.85,SSW,196,1.3,2.5,89,-99.99,,,-99.99,WSDL version 420,2013-06-18 11:46:00,
2013-06-18 21:51:00,49.8,47.0,29.85,WNW,287,1.1,2.9,90,0.00,,,0.00,WSDL version 420,2013-06-18 11:51:00,
2013-06-18 21:56:00,49.7,47.2,29.85,SW,231,1.0,2.9,91,0.00,,,0.00,WSDL version 420,2013-06-18 11:56:00,
2013-06-18 22:01:00,49.7,47.4,29.85,SSE,165,0.0,2.2,92,0.00,,,0.00,WSDL version 420,2013-06-18 12:01:00,
2013-06-18 22:06:00,49.4,46.9,29.85,NW,318,0.4,2.0,91,0.00,,,0.00,WSDL version 420,2013-06-18 12:06:00,
2013-06-18 22:11:00,49.4,47.3,29.85,WNW,290,2.1,2.9,93,-99.99,,,-99.99,WSDL version 420,2013-06-18 12:11:00,
2013-06-18 22:16:00,49.5,47.7,29.85,WNW,299,1.0,2.9,94,-99.99,,,-99.99,WSDL version 420,2013-06-18 12:16:00,
2013-06-18 22:26:00,49.5,47.9,29.83,West,264,1.1,3.1,94,0.00,,,0.00,WSDL version 420,2013-06-18 12:26:00,
2013-06-18 22:36:00,50.0,49.2,29.83,NW,312,3.9,6.5,98,0.00,,,0.00,WSDL version 420,2013-06-18 12:36:00,
2013-06-18 22:41:00,50.5,49.9,29.85,WNW,298,2.7,6.5,98,0.00,,,0.00,WSDL version 420,2013-06-18 12:41:00,
2013-06-18 22:46:00,50.8,49.8,29.85,West,270,3.3,4.9,96,0.00,,,0.00,WSDL version 420,2013-06-18 12:46:00,
2013-06-18 22:56:00,51.0,49.1,29.85,NW,315,2.3,6.5,92,-99.99,,,-99.99,WSDL version 420,2013-06-18 12:56:00,
2013-06-18 23:01:00,51.0,48.7,29.85,West,278,3.7,7.4,91,-99.99,,,-99.99,WSDL version 420,2013-06-18 13:01:00,
2013-06-18 23:06:00,50.9,48.4,29.85,West,266,3.4,7.4,91,0.00,,,0.00,WSDL version 420,2013-06-18 13:06:00,
2013-06-18 23:11:00,50.8,48.1,29.83,WNW,286,1.6,4.3,90,0.00,,,0.00,WSDL version 420,2013-06-18 13:11:00,
2013-06-18 23:16:00,50.5,47.7,29.83,WNW,303,2.5,5.6,90,-99.99,,,-99.99,WSDL version 420,2013-06-18 13:16:00,
2013-06-18 23:21:00,50.5,47.7,29.83,WNW,286,2.6,5.6,90,0.00,,,0.00,WSDL version 420,2013-06-18 13:21:00,
2013-06-18 23:26:00,50.4,47.6,29.85,WNW,296,3.0,4.7,90,-99.99,,,-99.99,WSDL version 420,2013-06-18 13:26:00,
2013-06-18 23:31:00,50.3,47.5,29.85,WNW,293,1.0,4.0,90,-99.99,,,-99.99,WSDL version 420,2013-06-18 13:31:00,
2013-06-18 23:36:00,49.9,46.9,29.85,SE,139,1.3,4.9,90,0.00,,,0.00,WSDL version 420,2013-06-18 13:36:00,
2013-06-18 23:41:00,49.6,46.6,29.83,WNW,296,1.5,4.9,89,0.00,,,0.00,WSDL version 420,2013-06-18 13:41:00,
2013-06-18 23:46:00,49.2,46.4,29.83,NW,306,1.1,2.7,90,-99.99,,,-99.99,WSDL version 420,2013-06-18 13:46:00,
2013-06-18 23:51:00,49.1,46.6,29.83,West,275,2.5,4.0,92,0.00,,,0.00,WSDL version 420,2013-06-18 13:51:00,
2013-06-18 23:56:00,49.1,46.9,29.85,SSW,210,0.4,4.0,92,-99.99,,,-99.99,WSDL version 420,2013-06-18 13:56:00,